Time;durP1;ratioP1;P1;durP2;ratioP2;P2;SDS_P1;SDS_P2;PMS_P1;PMS_P2;Temp;Humidity;BMP_temperature;BMP_pressure;BME280_temperature;BME280_humidity;BME280_pressure;Samples;Min_cycle;Max_cycle;Signal;HPM_P1;HPM_P2
2023/11/11 00:01:56;;;;;;;25.90;23.30;;;;;;;4.59;100.00;95198.47;5084804;28;20512;-63
2023/11/11 00:04:22;;;;;;;24.98;22.48;;;;;;;4.58;100.00;95199.41;5091758;28;20031;-62
2023/11/11 00:06:49;;;;;;;23.08;20.98;;;;;;;4.59;100.00;95198.47;5088268;28;20435;-63
2023/11/11 00:09:14;;;;;;;20.45;18.60;;;;;;;4.61;100.00;95194.91;5088070;28;20111;-62
2023/11/11 00:11:40;;;;;;;20.95;18.95;;;;;;;4.56;100.00;95190.88;5082140;28;20044;-63
2023/11/11 00:14:06;;;;;;;15.95;14.27;;;;;;;4.56;100.00;95190.88;5093695;28;20036;-64
2023/11/11 00:16:32;;;;;;;23.30;21.13;;;;;;;4.59;100.00;95202.84;5076472;28;20065;-63
2023/11/11 00:18:58;;;;;;;19.42;17.80;;;;;;;4.62;100.00;95202.59;5087869;28;20110;-63
2023/11/11 00:21:23;;;;;;;13.32;11.98;;;;;;;4.64;100.00;95212.94;5087531;28;20059;-63
2023/11/11 00:23:49;;;;;;;11.85;10.57;;;;;;;4.59;100.00;95211.50;5069757;28;20107;-64
2023/11/11 00:26:14;;;;;;;12.93;11.55;;;;;;;4.59;100.00;95203.69;5084676;28;20032;-63
2023/11/11 00:28:43;;;;;;;14.38;12.88;;;;;;;4.63;100.00;95213.88;5080702;28;20029;-63
2023/11/11 00:31:10;;;;;;;17.65;14.88;;;;;;;4.64;100.00;95213.78;5085877;28;20028;-64
2023/11/11 00:33:37;;;;;;;22.15;19.95;;;;;;;4.67;100.00;95216.13;5087384;28;20074;-63
2023/11/11 00:36:05;;;;;;;20.58;16.95;;;;;;;4.63;100.00;95216.47;5063888;28;20028;-63
2023/11/11 00:38:31;;;;;;;30.98;27.90;;;;;;;4.64;100.00;95215.53;5076365;28;20051;-63
2023/11/11 00:40:56;;;;;;;20.63;17.88;;;;;;;4.77;100.00;95220.63;5092214;28;20064;-63
2023/11/11 00:43:22;;;;;;;31.10;28.23;;;;;;;4.70;100.00;95235.91;5083394;28;20032;-64
2023/11/11 00:45:47;;;;;;;28.98;26.17;;;;;;;4.70;100.00;95226.34;5084415;28;20015;-63
2023/11/11 00:48:13;;;;;;;31.75;28.95;;;;;;;4.70;100.00;95238.53;5076403;28;20028;-63
2023/11/11 00:50:38;;;;;;;16.98;15.45;;;;;;;4.71;100.00;95230.59;5077430;28;20042;-63
2023/11/11 00:53:03;;;;;;;16.33;14.88;;;;;;;4.69;100.00;95234.25;5078214;28;20028;-63
2023/11/11 00:55:29;;;;;;;17.23;15.57;;;;;;;4.68;100.00;95237.81;5078416;28;20020;-63
2023/11/11 00:57:54;;;;;;;21.98;19.98;;;;;;;4.66;100.00;95240.56;5076204;28;20027;-63
2023/11/11 01:00:21;;;;;;;24.77;22.20;;;;;;;4.66;100.00;95234.50;5074024;28;20028;-63
2023/11/11 01:02:51;;;;;;;23.05;20.73;;;;;;;4.66;100.00;95237.94;5074456;28;20025;-63
2023/11/11 01:05:17;;;;;;;22.35;20.05;;;;;;;4.69;100.00;95229.03;5074693;28;20389;-63
2023/11/11 01:07:42;;;;;;;19.10;17.15;;;;;;;4.70;100.00;95215.91;5079247;28;20074;-63
2023/11/11 01:10:08;;;;;;;14.25;13.02;;;;;;;4.69;100.00;95208.19;5083783;28;20044;-63
2023/11/11 01:12:34;;;;;;;13.57;12.05;;;;;;;4.70;100.00;95209.84;5081390;28;20032;-63
2023/11/11 01:15:00;;;;;;;15.88;12.30;;;;;;;4.75;100.00;95204.28;5074225;28;20436;-63
2023/11/11 01:17:26;;;;;;;14.63;13.27;;;;;;;4.80;100.00;95212.56;5078459;28;20054;-63
2023/11/11 01:19:52;;;;;;;16.08;13.93;;;;;;;4.71;100.00;95209.75;5078391;28;20036;-63
2023/11/11 01:22:18;;;;;;;13.65;11.43;;;;;;;4.69;100.00;95208.19;5077649;28;20028;-63
2023/11/11 01:24:45;;;;;;;16.52;14.50;;;;;;;4.68;100.00;95209.13;5075457;28;20413;-63
2023/11/11 01:27:11;;;;;;;13.57;9.02;;;;;;;4.65;100.00;95207.59;5089724;28;20032;-63
2023/11/11 01:29:37;;;;;;;7.47;6.10;;;;;;;4.66;100.00;95219.69;5078572;28;20709;-63
2023/11/11 01:32:04;;;;;;;11.38;7.00;;;;;;;4.68;100.00;95237.81;5083343;28;20038;-63
2023/11/11 01:34:30;;;;;;;13.27;11.18;;;;;;;5.07;100.00;95229.66;5076212;28;20029;-63
2023/11/11 01:36:56;;;;;;;14.63;10.93;;;;;;;4.85;100.00;95226.94;5080836;28;20035;-63
2023/11/11 01:39:22;;;;;;;14.18;11.90;;;;;;;4.72;100.00;95228.81;5079105;28;20020;-63
2023/11/11 01:41:47;;;;;;;17.00;12.77;;;;;;;4.69;100.00;95223.81;5084377;28;20031;-63
2023/11/11 01:44:13;;;;;;;13.10;10.73;;;;;;;4.64;100.00;95224.19;5077879;28;20524;-63
2023/11/11 01:46:40;;;;;;;10.43;8.27;;;;;;;4.62;100.00;95227.88;5075205;28;20031;-63
2023/11/11 01:49:06;;;;;;;9.18;8.32;;;;;;;4.62;100.00;95233.88;5084089;28;20019;-63
2023/11/11 01:51:31;;;;;;;9.60;8.05;;;;;;;4.64;100.00;95237.25;5077483;28;20076;-63
2023/11/11 01:53:58;;;;;;;8.48;7.57;;;;;;;4.62;100.00;95231.28;5074129;28;20020;-63
2023/11/11 01:56:24;;;;;;;13.70;6.63;;;;;;;4.58;100.00;95219.44;5074330;28;20106;-63
2023/11/11 01:58:50;;;;;;;9.05;7.53;;;;;;;4.62;100.00;95231.28;5076998;28;20028;-63
2023/11/11 02:01:15;;;;;;;7.30;6.60;;;;;;;4.63;100.00;95234.75;5088124;28;20465;-63
2023/11/11 02:03:41;;;;;;;7.80;5.28;;;;;;;4.58;100.00;95233.31;5090855;28;20511;-63
2023/11/11 02:06:09;;;;;;;6.47;5.47;;;;;;;4.54;100.00;95226.69;5083585;28;20039;-63
2023/11/11 02:08:36;;;;;;;8.15;6.13;;;;;;;4.53;100.00;95218.97;5077875;28;20062;-64
2023/11/11 02:11:05;;;;;;;6.97;4.90;;;;;;;4.56;100.00;95216.97;5083376;28;20397;-63
2023/11/11 02:13:34;;;;;;;8.10;5.65;;;;;;;4.55;100.00;95217.91;5076784;28;20036;-63
2023/11/11 02:16:02;;;;;;;8.95;5.78;;;;;;;4.55;100.00;95223.13;5078248;28;20029;-63
2023/11/11 02:18:28;;;;;;;8.43;7.13;;;;;;;4.57;100.00;95218.63;5079381;28;20036;-63
2023/11/11 02:20:53;;;;;;;10.07;6.82;;;;;;;4.63;100.00;95204.25;5093433;28;20091;-63
2023/11/11 02:23:19;;;;;;;6.30;5.70;;;;;;;4.58;100.00;95209.00;5095140;28;20064;-63
2023/11/11 02:25:45;;;;;;;8.63;6.25;;;;;;;4.57;100.00;95208.19;5086129;28;20043;-63
2023/11/11 02:28:10;;;;;;;6.72;6.00;;;;;;;4.58;100.00;95201.19;5088661;28;20805;-63
2023/11/11 02:30:35;;;;;;;8.07;6.65;;;;;;;4.58;100.00;95202.03;5079621;28;20038;-63
2023/11/11 02:33:02;;;;;;;6.03;5.20;;;;;;;4.57;100.00;95207.34;5087529;28;20024;-63
2023/11/11 02:35:27;;;;;;;7.88;5.43;;;;;;;4.59;100.00;95215.88;5091866;28;20053;-63
2023/11/11 02:37:52;;;;;;;5.78;5.05;;;;;;;4.82;100.00;95206.31;5085510;28;20099;-63
2023/11/11 02:40:18;;;;;;;8.73;6.18;;;;;;;4.68;100.00;95212.59;5086812;28;20491;-63
2023/11/11 02:42:43;;;;;;;9.82;5.45;;;;;;;4.58;100.00;95225.50;5087234;28;20039;-64
2023/11/11 02:45:10;;;;;;;9.95;6.80;;;;;;;4.53;100.00;95219.81;5085737;28;20115;-63
2023/11/11 02:47:35;;;;;;;10.18;7.45;;;;;;;4.51;100.00;95213.84;5087902;28;20024;-63
2023/11/11 02:50:02;;;;;;;9.90;7.05;;;;;;;4.54;100.00;95212.78;5083162;28;20030;-63
2023/11/11 02:52:27;;;;;;;9.43;8.50;;;;;;;4.55;100.00;95217.06;5097406;28;20864;-63
2023/11/11 02:54:52;;;;;;;7.03;6.32;;;;;;;4.54;100.00;95215.41;5081670;28;20025;-64
2023/11/11 02:57:18;;;;;;;3.65;3.33;;;;;;;4.52;100.00;95212.91;5087280;28;20032;-63
2023/11/11 02:59:43;;;;;;;4.95;2.70;;;;;;;4.53;100.00;95211.97;5083396;28;20028;-63
2023/11/11 03:02:11;;;;;;;3.80;3.35;;;;;;;4.54;100.00;95215.41;5078880;28;20111;-63
2023/11/11 03:04:39;;;;;;;7.60;3.40;;;;;;;4.56;100.00;95219.56;5086521;28;20032;-63
2023/11/11 03:07:05;;;;;;;4.07;3.35;;;;;;;4.62;100.00;95220.03;5089914;28;20047;-63
2023/11/11 03:09:32;;;;;;;3.60;3.17;;;;;;;4.62;100.00;95220.03;5083129;28;20032;-63
2023/11/11 03:11:57;;;;;;;5.57;3.70;;;;;;;4.76;100.00;95205.94;5078286;28;20139;-64
2023/11/11 03:14:25;;;;;;;3.67;3.38;;;;;;;4.72;100.00;95202.72;5081249;28;20103;-63
2023/11/11 03:16:51;;;;;;;5.13;3.80;;;;;;;4.62;100.00;95218.25;5077774;28;20052;-63
2023/11/11 03:19:16;;;;;;;4.68;2.80;;;;;;;4.57;100.00;95223.00;5083288;28;20028;-63
2023/11/11 03:21:42;;;;;;;5.68;4.40;;;;;;;4.58;100.00;95233.31;5086090;28;20028;-63
2023/11/11 03:24:07;;;;;;;4.43;3.90;;;;;;;4.57;100.00;95230.81;5085311;28;20052;-63
2023/11/11 03:26:33;;;;;;;5.72;4.18;;;;;;;4.53;100.00;95225.03;5084397;28;20028;-63
2023/11/11 03:28:58;;;;;;;5.78;5.28;;;;;;;4.54;100.00;95226.69;5079605;28;20114;-63
2023/11/11 03:31:24;;;;;;;4.95;4.20;;;;;;;4.57;100.00;95229.03;5082704;28;20031;-64
2023/11/11 03:33:49;;;;;;;3.95;3.47;;;;;;;4.58;100.00;95232.47;5079940;28;20054;-63
2023/11/11 03:36:15;;;;;;;5.00;4.47;;;;;;;4.52;100.00;95228.53;5089893;28;20477;-63
2023/11/11 03:38:40;;;;;;;5.70;5.20;;;;;;;4.49;100.00;95231.38;5078581;28;20024;-63
2023/11/11 03:41:07;;;;;;;7.43;4.90;;;;;;;4.44;100.00;95229.16;5082756;28;20073;-64
2023/11/11 03:43:33;;;;;;;5.47;3.38;;;;;;;4.38;100.00;95216.56;5080062;28;20060;-63
2023/11/11 03:45:59;;;;;;;4.28;3.88;;;;;;;4.36;100.00;95210.63;5092123;28;20043;-63
2023/11/11 03:48:25;;;;;;;4.93;3.75;;;;;;;4.34;100.00;95209.09;5081227;28;20565;-63
2023/11/11 03:50:50;;;;;;;3.30;3.00;;;;;;;4.31;100.00;95210.16;5084315;28;20107;-63
2023/11/11 03:53:16;;;;;;;5.18;3.38;;;;;;;4.27;100.00;95214.75;5078391;28;20025;-63
2023/11/11 03:55:41;;;;;;;3.13;2.92;;;;;;;4.27;100.00;95217.34;5081896;28;20020;-64
2023/11/11 03:58:07;;;;;;;4.38;4.07;;;;;;;4.28;100.00;95218.19;5081717;28;20073;-63
2023/11/11 04:00:33;;;;;;;4.18;3.40;;;;;;;4.29;100.00;95215.47;5079660;28;20104;-63
2023/11/11 04:02:58;;;;;;;5.03;4.43;;;;;;;4.30;100.00;95229.34;5082913;28;20032;-63
2023/11/11 04:05:23;;;;;;;5.32;3.88;;;;;;;4.27;100.00;95222.56;5079121;28;20210;-63
2023/11/11 04:07:49;;;;;;;3.97;3.63;;;;;;;4.26;100.00;95222.69;5081915;28;20077;-63
2023/11/11 04:10:17;;;;;;;6.82;4.30;;;;;;;4.26;100.00;95223.53;5078679;28;20081;-63
2023/11/11 04:12:46;;;;;;;6.70;3.85;;;;;;;4.28;100.00;95224.22;5080318;28;20024;-63
2023/11/11 04:15:12;;;;;;;4.13;3.80;;;;;;;4.26;100.00;95233.94;5079487;28;20028;-63
2023/11/11 04:17:45;;;;;;;6.55;4.10;;;;;;;4.23;100.00;95228.16;5085405;28;20028;-64
2023/11/11 04:20:11;;;;;;;4.72;4.38;;;;;;;4.19;100.00;95230.13;5083903;28;20056;-63
2023/11/11 04:22:37;;;;;;;7.07;4.38;;;;;;;4.41;100.00;95225.94;5094983;28;20021;-63
2023/11/11 04:25:05;;;;;;;4.55;4.15;;;;;;;4.29;100.00;95223.28;5085120;28;20029;-63
2023/11/11 04:27:32;;;;;;;4.72;4.22;;;;;;;4.28;100.00;95220.81;5076221;28;20120;-62
2023/11/11 04:29:57;;;;;;;5.45;4.93;;;;;;;4.23;100.00;95225.53;5079452;28;20861;-63
2023/11/11 04:32:26;;;;;;;8.15;5.38;;;;;;;4.16;100.00;95222.56;5075468;28;20035;-63
2023/11/11 04:34:51;;;;;;;8.90;6.50;;;;;;;4.08;100.00;95228.34;5081444;28;20020;-63
2023/11/11 04:37:17;;;;;;;8.30;6.07;;;;;;;4.06;100.00;95221.56;5078363;28;20047;-63
2023/11/11 04:39:46;;;;;;;6.28;5.03;;;;;;;4.06;100.00;95230.22;5084885;28;20058;-63
2023/11/11 04:42:15;;;;;;;8.23;4.57;;;;;;;4.06;100.00;95234.59;5087582;28;20024;-63
2023/11/11 04:44:44;;;;;;;8.02;4.55;;;;;;;4.04;100.00;95220.84;5080357;28;20753;-63
2023/11/11 04:47:09;;;;;;;3.00;2.72;;;;;;;4.06;100.00;95238.03;5078940;28;20123;-63
2023/11/11 04:49:36;;;;;;;3.58;3.28;;;;;;;4.09;100.00;95243.00;5085936;28;20056;-63
2023/11/11 04:52:01;;;;;;;3.25;2.95;;;;;;;4.13;100.00;95234.03;5083169;28;20471;-63
2023/11/11 04:54:27;;;;;;;5.28;3.88;;;;;;;4.18;100.00;95245.88;5087786;28;20020;-63
2023/11/11 04:56:54;;;;;;;8.93;6.45;;;;;;;4.18;100.00;95245.88;5084341;28;20025;-63
2023/11/11 04:59:19;;;;;;;4.32;3.85;;;;;;;4.21;100.00;95253.50;5084883;28;20027;-63
2023/11/11 05:01:45;;;;;;;7.32;6.30;;;;;;;4.17;100.00;95260.69;5082028;28;20429;-63
2023/11/11 05:04:11;;;;;;;8.52;5.32;;;;;;;4.16;100.00;95251.22;5084069;28;20109;-63
2023/11/11 05:06:36;;;;;;;6.80;5.57;;;;;;;4.18;100.00;95254.53;5081106;28;20024;-63
2023/11/11 05:09:04;;;;;;;5.75;5.20;;;;;;;4.19;100.00;95261.41;5073839;28;20028;-63
2023/11/11 05:11:30;;;;;;;5.03;4.55;;;;;;;4.19;100.00;95258.81;5080528;28;20062;-63
2023/11/11 05:13:56;;;;;;;5.22;4.72;;;;;;;4.16;100.00;95264.25;5079535;28;20028;-63
2023/11/11 05:16:27;;;;;;;4.97;3.72;;;;;;;4.16;100.00;95269.47;5077046;28;20020;-64
2023/11/11 05:18:53;;;;;;;4.38;3.83;;;;;;;4.10;100.00;95270.72;5086125;28;20039;-63
2023/11/11 05:21:19;;;;;;;6.65;4.05;;;;;;;4.07;100.00;95275.31;5092651;28;20034;-63
2023/11/11 05:23:46;;;;;;;4.60;3.50;;;;;;;4.03;100.00;95273.88;5082677;28;20024;-63
2023/11/11 05:26:13;;;;;;;5.22;2.53;;;;;;;4.00;100.00;95280.19;5076682;28;20040;-63
2023/11/11 05:28:39;;;;;;;3.08;2.88;;;;;;;3.95;100.00;95288.31;5082603;28;20056;-64
2023/11/11 05:31:06;;;;;;;3.95;3.53;;;;;;;3.95;100.00;95285.72;5091662;28;20040;-63
2023/11/11 05:33:32;;;;;;;3.50;2.20;;;;;;;3.94;100.00;95291.00;5074446;28;20503;-63
2023/11/11 05:35:57;;;;;;;4.00;3.60;;;;;;;3.91;100.00;95296.44;5082923;28;20025;-63
2023/11/11 05:38:23;;;;;;;5.50;3.70;;;;;;;3.85;100.00;95292.50;5074768;28;20166;-63
2023/11/11 05:40:48;;;;;;;3.30;2.70;;;;;;;3.75;100.00;95297.53;5078148;28;20024;-63
2023/11/11 05:43:14;;;;;;;3.78;2.40;;;;;;;3.72;100.00;95301.22;5075322;28;20032;-63
2023/11/11 05:45:39;;;;;;;2.08;1.85;;;;;;;3.67;100.00;95303.31;5076484;28;20032;-63
2023/11/11 05:48:05;;;;;;;3.00;2.55;;;;;;;3.65;100.00;95305.22;5074517;28;20052;-64
2023/11/11 05:50:30;;;;;;;3.08;2.75;;;;;;;3.66;100.00;95316.44;5078926;28;20027;-63
2023/11/11 05:52:56;;;;;;;5.57;2.78;;;;;;;3.64;100.00;95320.94;5082672;28;20031;-63
2023/11/11 05:55:21;;;;;;;3.85;2.30;;;;;;;3.65;100.00;95322.59;5085160;28;20042;-63
2023/11/11 05:57:47;;;;;;;5.05;3.10;;;;;;;3.81;100.00;95325.78;5073907;28;20032;-63
2023/11/11 06:00:13;;;;;;;4.13;3.45;;;;;;;3.98;100.00;95327.16;5074339;28;20025;-64
2023/11/11 06:02:39;;;;;;;4.15;3.42;;;;;;;3.67;100.00;95320.69;5073991;28;20121;-63
2023/11/11 06:05:05;;;;;;;11.70;7.45;;;;;;;3.63;100.00;95333.09;5083191;28;20063;-63
2023/11/11 06:07:30;;;;;;;9.48;6.90;;;;;;;3.57;100.00;95336.13;5078548;28;20040;-63
2023/11/11 06:09:56;;;;;;;10.13;7.10;;;;;;;3.51;100.00;95324.38;5082171;28;20044;-63
2023/11/11 06:12:21;;;;;;;11.88;6.35;;;;;;;3.48;100.00;95342.00;5079901;28;20024;-64
2023/11/11 06:14:47;;;;;;;7.80;5.78;;;;;;;3.46;100.00;95339.50;5082826;28;20099;-63
2023/11/11 06:17:12;;;;;;;8.52;4.97;;;;;;;3.41;100.00;95339.81;5078042;28;20029;-64
2023/11/11 06:19:37;;;;;;;12.55;7.43;;;;;;;3.33;100.00;95329.09;5074767;28;20029;-63
2023/11/11 06:22:04;;;;;;;7.45;6.75;;;;;;;3.26;100.00;95338.28;5094217;28;20027;-63
2023/11/11 06:24:32;;;;;;;11.55;10.55;;;;;;;3.23;100.00;95343.69;5093748;28;20028;-63
2023/11/11 06:26:58;;;;;;;9.77;8.90;;;;;;;3.20;100.00;95349.94;5088671;28;20523;-63
2023/11/11 06:29:23;;;;;;;15.98;13.73;;;;;;;3.19;100.00;95361.28;5073988;28;20040;-63
2023/11/11 06:31:51;;;;;;;17.80;15.30;;;;;;;3.12;100.00;95365.25;5086395;28;20016;-63
2023/11/11 06:34:16;;;;;;;15.63;12.07;;;;;;;3.06;100.00;95363.88;5084294;28;20594;-63
2023/11/11 06:36:41;;;;;;;11.30;9.75;;;;;;;3.12;100.00;95371.25;5085615;28;20112;-64
2023/11/11 06:39:08;;;;;;;11.25;10.05;;;;;;;3.19;100.00;95370.84;5073546;28;20013;-63
2023/11/11 06:41:33;;;;;;;13.70;11.25;;;;;;;3.23;100.00;95374.91;5082650;28;20066;-63
2023/11/11 06:43:59;;;;;;;15.93;12.90;;;;;;;3.25;100.00;95375.66;5079780;28;20019;-63
2023/11/11 06:46:24;;;;;;;19.27;9.77;;;;;;;3.26;100.00;95372.09;5072260;28;20614;-63
2023/11/11 06:48:49;;;;;;;11.30;8.98;;;;;;;3.26;100.00;95372.09;5072784;28;20021;-62
2023/11/11 06:51:16;;;;;;;14.90;11.38;;;;;;;3.23;100.00;95364.50;5084964;28;20103;-63
2023/11/11 06:53:41;;;;;;;13.40;12.00;;;;;;;3.27;100.00;95371.16;5089128;28;20027;-63
2023/11/11 06:56:06;;;;;;;11.77;10.43;;;;;;;3.33;100.00;95380.34;5081257;28;20048;-63
2023/11/11 06:58:32;;;;;;;15.10;10.40;;;;;;;3.35;100.00;95374.06;5084958;28;20052;-63
2023/11/11 07:00:58;;;;;;;10.32;8.45;;;;;;;3.38;100.00;95373.84;5087879;28;20102;-63
2023/11/11 07:03:24;;;;;;;10.10;8.98;;;;;;;3.39;100.00;95383.31;5085165;28;20021;-63
2023/11/11 07:05:51;;;;;;;14.20;12.82;;;;;;;3.43;100.00;95382.19;5073628;28;20554;-64
2023/11/11 07:08:17;;;;;;;12.32;11.15;;;;;;;3.44;100.00;95388.22;5076987;28;20032;-64
2023/11/11 07:10:42;;;;;;;12.52;10.45;;;;;;;3.44;100.00;95385.63;5076934;28;20052;-63
2023/11/11 07:13:07;;;;;;;10.70;9.70;;;;;;;3.43;100.00;95381.34;5086340;28;20024;-63
2023/11/11 07:15:36;;;;;;;15.23;12.93;;;;;;;3.36;100.00;95395.72;5088566;28;20025;-64
2023/11/11 07:18:03;;;;;;;11.25;9.93;;;;;;;3.29;100.00;95416.13;5081246;28;20017;-63
2023/11/11 07:20:29;;;;;;;10.38;9.30;;;;;;;3.28;100.00;95411.84;5078814;28;20028;-63
2023/11/11 07:22:55;;;;;;;10.75;9.07;;;;;;;3.27;100.00;95405.81;5103036;28;20168;-63
2023/11/11 07:25:23;;;;;;;10.82;6.22;;;;;;;3.32;100.00;95407.28;5080600;28;20016;-63
2023/11/11 07:27:48;;;;;;;9.85;7.03;;;;;;;3.36;100.00;95419.97;5077158;28;20044;-63
2023/11/11 07:30:14;;;;;;;10.27;7.40;;;;;;;3.41;100.00;95417.88;5093208;28;20027;-63
2023/11/11 07:32:40;;;;;;;8.95;8.15;;;;;;;3.47;100.00;95421.84;5087501;28;20075;-63
2023/11/11 07:35:10;;;;;;;8.38;7.50;;;;;;;3.55;100.00;95427.38;5083035;28;20012;-63
2023/11/11 07:37:35;;;;;;;8.07;6.32;;;;;;;3.60;100.00;95421.81;5093863;28;20032;-63
2023/11/11 07:40:03;;;;;;;6.93;6.20;;;;;;;3.64;100.00;95423.28;5090096;28;20461;-63
2023/11/11 07:42:28;;;;;;;11.80;7.30;;;;;;;3.71;100.00;95432.34;5081195;28;20021;-63
2023/11/11 07:44:54;;;;;;;13.23;12.05;;;;;;;3.73;100.00;95437.44;5079809;28;20039;-64
2023/11/11 07:47:19;;;;;;;10.23;9.23;;;;;;;3.80;100.00;95433.47;5096404;28;20085;-63
2023/11/11 07:49:45;;;;;;;13.98;10.27;;;;;;;3.86;100.00;95434.81;5087082;28;20507;-63
2023/11/11 07:52:10;;;;;;;10.18;7.25;;;;;;;3.95;100.00;95434.19;5084411;28;20123;-64
2023/11/11 07:54:36;;;;;;;9.32;7.28;;;;;;;4.01;100.00;95432.94;5082280;28;20020;-64
2023/11/11 07:57:03;;;;;;;9.50;7.35;;;;;;;4.05;100.00;95431.75;5084524;28;20090;-64
2023/11/11 07:59:29;;;;;;;6.93;6.07;;;;;;;4.11;100.00;95425.28;5083718;28;20464;-63
2023/11/11 08:01:55;;;;;;;7.07;6.38;;;;;;;4.19;100.00;95428.19;5092411;28;20020;-63
2023/11/11 08:04:21;;;;;;;7.03;6.10;;;;;;;4.23;100.00;95427.00;5088097;28;20031;-64
2023/11/11 08:06:46;;;;;;;6.55;6.00;;;;;;;4.26;100.00;95426.78;5091169;28;20031;-63
2023/11/11 08:09:11;;;;;;;13.57;12.13;;;;;;;4.25;100.00;95427.72;5088151;28;20020;-63
2023/11/11 08:11:37;;;;;;;10.18;9.10;;;;;;;4.28;100.00;95427.50;5079397;28;20055;-63
2023/11/11 08:14:05;;;;;;;7.90;6.97;;;;;;;4.28;100.00;95432.72;5090223;28;20016;-63
2023/11/11 08:16:31;;;;;;;8.23;7.35;;;;;;;4.28;100.00;95430.13;5082216;28;20473;-63
2023/11/11 08:18:56;;;;;;;6.03;5.35;;;;;;;4.32;100.00;95425.53;5086622;28;20090;-63
2023/11/11 08:21:29;;;;;;;7.00;5.68;;;;;;;4.28;100.00;95432.72;5094937;28;20011;-63
2023/11/11 08:23:54;;;;;;;7.32;6.15;;;;;;;4.22;100.00;95429.75;5082321;28;20051;-63
2023/11/11 08:26:20;;;;;;;7.45;6.10;;;;;;;4.18;100.00;95423.91;5080593;28;20078;-63
2023/11/11 08:28:45;;;;;;;8.90;6.30;;;;;;;4.17;100.00;95419.63;5080326;28;20038;-63
2023/11/11 08:31:11;;;;;;;10.68;6.32;;;;;;;4.11;100.00;95422.69;5082127;28;20032;-63
2023/11/11 08:33:36;;;;;;;7.40;6.10;;;;;;;4.03;100.00;95407.59;5079067;28;20670;-63
2023/11/11 08:36:02;;;;;;;7.82;6.35;;;;;;;4.03;100.00;95411.97;5090334;28;20028;-63
2023/11/11 08:38:27;;;;;;;10.68;7.65;;;;;;;4.01;100.00;95399.88;5081513;28;20020;-63
2023/11/11 08:40:53;;;;;;;16.10;14.35;;;;;;;4.03;100.00;95409.34;5082925;28;20601;-63
2023/11/11 08:43:18;;;;;;;13.15;11.77;;;;;;;4.06;100.00;95409.97;5077155;28;20032;-63
2023/11/11 08:45:44;;;;;;;11.38;10.27;;;;;;;4.14;100.00;95417.25;5082540;28;20029;-63
2023/11/11 08:48:09;;;;;;;13.70;12.40;;;;;;;4.21;100.00;95428.09;5088931;28;20102;-63
2023/11/11 08:50:35;;;;;;;10.57;9.70;;;;;;;4.24;100.00;95430.47;5091425;28;20024;-63
2023/11/11 08:53:00;;;;;;;14.00;11.30;;;;;;;4.23;100.00;95416.59;5086130;28;20060;-63
2023/11/11 08:55:25;;;;;;;15.50;13.98;;;;;;;4.26;100.00;95412.94;5080634;28;20028;-63
2023/11/11 08:57:51;;;;;;;12.68;11.50;;;;;;;4.33;100.00;95408.94;5079461;28;20031;-64
2023/11/11 09:00:17;;;;;;;12.88;10.70;;;;;;;4.37;100.00;95414.78;5090130;28;20027;-63
2023/11/11 09:02:42;;;;;;;8.13;7.25;;;;;;;4.43;100.00;95423.00;5082670;28;20028;-63
2023/11/11 09:05:09;;;;;;;8.93;5.75;;;;;;;4.50;100.00;95422.53;5077463;28;20035;-63
2023/11/11 09:07:35;;;;;;;5.10;2.60;;;;;;;4.52;100.00;95424.06;5076911;28;20107;-62
2023/11/11 09:10:02;;;;;;;5.13;3.28;;;;;;;4.57;100.00;95427.22;5075129;28;20072;-62
2023/11/11 09:12:28;;;;;;;4.90;2.72;;;;;;;4.66;100.00;95437.91;5077325;28;20020;-63
2023/11/11 09:14:53;;;;;;;7.45;2.92;;;;;;;4.75;100.00;95439.81;5083759;28;20510;-63
2023/11/11 09:17:21;;;;;;;4.93;2.80;;;;;;;4.85;100.00;95435.63;5080189;28;20023;-63
2023/11/11 09:19:47;;;;;;;6.50;2.75;;;;;;;4.95;100.00;95430.56;5091948;28;20039;-63
2023/11/11 09:22:12;;;;;;;7.10;6.10;;;;;;;4.96;100.00;95429.59;5089530;28;20159;-63
2023/11/11 09:24:37;;;;;;;7.90;6.97;;;;;;;4.98;100.00;95434.72;5083771;28;20023;-63
2023/11/11 09:27:03;;;;;;;7.25;4.80;;;;;;;4.97;100.00;95435.63;5089337;28;20124;-63
2023/11/11 09:29:28;;;;;;;7.55;4.03;;;;;;;4.86;100.00;95445.09;5084594;28;20144;-63
2023/11/11 09:31:54;;;;;;;5.32;4.10;;;;;;;4.77;100.00;95437.13;5091129;28;20035;-64
2023/11/11 09:34:19;;;;;;;5.00;3.50;;;;;;;4.66;100.00;95443.97;5079860;28;20130;-62
2023/11/11 09:36:45;;;;;;;4.57;2.78;;;;;;;4.58;100.00;95441.91;5079953;28;20507;-63
2023/11/11 09:39:13;;;;;;;5.28;3.97;;;;;;;4.50;100.00;95435.56;5082167;28;20036;-63
2023/11/11 09:41:39;;;;;;;10.48;5.32;;;;;;;4.47;100.00;95431.41;5089858;28;20024;-63
2023/11/11 09:44:05;;;;;;;8.48;4.40;;;;;;;4.44;100.00;95437.69;5074984;28;20449;-63
2023/11/11 09:46:31;;;;;;;14.25;8.25;;;;;;;4.44;100.00;95440.31;5074234;28;20039;-63
2023/11/11 09:48:58;;;;;;;10.68;7.53;;;;;;;4.44;100.00;95452.50;5087121;28;20032;-63
2023/11/11 09:51:25;;;;;;;11.40;8.00;;;;;;;4.44;100.00;95449.88;5075104;28;20831;-63
2023/11/11 09:53:53;;;;;;;7.47;4.53;;;;;;;4.43;100.00;95456.03;5075684;28;20074;-63
2023/11/11 09:56:21;;;;;;;2.47;2.20;;;;;;;4.44;100.00;95453.34;5099420;28;20103;-62
2023/11/11 09:58:49;;;;;;;6.63;2.42;;;;;;;4.62;100.00;95450.31;5097008;28;20092;-62
2023/11/11 10:01:15;;;;;;;4.75;2.67;;;;;;;4.75;100.00;95457.25;5097580;28;20380;-64
2023/11/11 10:03:40;;;;;;;4.88;3.15;;;;;;;4.87;100.00;95456.38;5092095;28;20116;-64
2023/11/11 10:06:06;;;;;;;5.95;2.90;;;;;;;5.07;100.00;95462.72;5088808;28;20040;-65
2023/11/11 10:08:32;;;;;;;6.13;3.00;;;;;;;5.23;100.00;95461.59;5084777;28;20036;-65
2023/11/11 10:10:57;;;;;;;5.47;3.22;;;;;;;5.22;100.00;95455.53;5077824;28;20044;-64
2023/11/11 10:13:23;;;;;;;10.32;3.50;;;;;;;5.34;100.00;95452.97;5082863;28;20080;-64
2023/11/11 10:15:49;;;;;;;5.60;3.13;;;;;;;5.51;100.00;95457.72;5075812;28;20046;-65
2023/11/11 10:18:14;;;;;;;4.60;3.00;;;;;;;5.65;100.00;95454.06;5083076;28;20036;-65
2023/11/11 10:20:45;;;;;;;7.53;3.53;;;;;;;5.80;100.00;95454.69;5079895;28;20106;-65
2023/11/11 10:23:15;;;;;;;4.65;3.10;;;;;;;5.98;100.00;95457.63;5076132;28;20034;-65
2023/11/11 10:25:41;;;;;;;6.15;2.90;;;;;;;6.19;100.00;95450.88;5073855;28;20044;-65
2023/11/11 10:28:15;;;;;;;4.40;2.40;;;;;;;6.29;100.00;95450.03;5079863;28;20093;-65
2023/11/11 10:30:42;;;;;;;5.70;2.40;;;;;;;6.35;100.00;95445.28;5076084;28;20039;-65
2023/11/11 10:33:10;;;;;;;3.63;2.20;;;;;;;6.32;100.00;95440.31;5082618;28;20024;-66
2023/11/11 10:35:36;;;;;;;5.03;2.42;;;;;;;6.38;100.00;95422.31;5073571;28;20078;-66
2023/11/11 10:38:01;;;;;;;2.80;1.90;;;;;;;6.45;100.00;95415.66;5072522;28;20036;-65
2023/11/11 10:40:27;;;;;;;3.47;2.60;;;;;;;6.68;100.00;95409.50;5075508;28;20037;-65
2023/11/11 10:42:52;;;;;;;4.93;2.17;;;;;;;6.87;100.00;95406.25;5086999;28;20032;-64
2023/11/11 10:45:17;;;;;;;4.50;2.25;;;;;;;7.05;100.00;95416.13;5078972;28;20028;-64
2023/11/11 10:47:47;;;;;;;5.10;2.10;;;;;;;7.19;100.00;95420.25;5094713;28;20032;-64
2023/11/11 10:50:13;;;;;;;5.20;2.47;;;;;;;7.31;100.00;95429.69;5091634;28;20021;-64
2023/11/11 10:52:42;;;;;;;4.00;2.20;;;;;;;7.31;100.00;95442.78;5095276;28;20415;-64
2023/11/11 10:55:09;;;;;;;5.97;2.15;;;;;;;7.41;100.00;95461.16;5086031;28;20464;-64
2023/11/11 10:57:35;;;;;;;3.92;2.55;;;;;;;7.35;100.00;95469.53;5095503;28;20118;-63
2023/11/11 11:00:00;;;;;;;3.75;2.50;;;;;;;7.40;100.00;95470.81;5082644;28;20492;-65
2023/11/11 11:02:27;;;;;;;6.72;2.33;;;;;;;7.36;100.00;95473.81;5084620;28;20491;-64
2023/11/11 11:05:04;;;;;;;3.03;2.22;;;;;;;7.41;100.00;95480.34;5094654;28;20024;-65
2023/11/11 11:07:34;;;;;;;3.90;2.05;;;;;;;7.42;100.00;95489.88;5084778;28;20051;-66
2023/11/11 11:10:14;;;;;;;4.95;2.33;;;;;;;7.51;100.00;95493.47;5085544;28;20127;-64
2023/11/11 11:12:51;;;;;;;5.55;2.30;;;;;;;7.55;100.00;95512.41;5096370;28;20038;-65
2023/11/11 11:15:17;;;;;;;4.68;2.60;;;;;;;7.54;100.00;95510.75;5087363;28;20584;-65
2023/11/11 11:17:44;;;;;;;5.20;2.58;;;;;;;7.64;100.00;95518.66;5087328;28;20051;-65
2023/11/11 11:20:20;;;;;;;4.13;2.75;;;;;;;7.68;100.00;95520.06;5081151;28;20032;-65
2023/11/11 11:22:47;;;;;;;3.67;2.55;;;;;;;7.72;100.00;95522.31;5094969;28;20437;-65
2023/11/11 11:25:37;;;;;;;4.82;3.33;;;;;;;7.87;100.00;95541.16;5083054;28;20017;-65